Time;durP1;ratioP1;P1;durP2;ratioP2;P2;SDS_P1;SDS_P2;PMS_P1;PMS_P2;Temp;Humidity;BMP_temperature;BMP_pressure;BME280_temperature;BME280_humidity;BME280_pressure;Samples;Min_cycle;Max_cycle;Signal;HPM_P1;HPM_P2
2022/08/05 00:00:03;;;;;;;31.98;13.15;;;;;;;19.72;81.89;101173.41;4971136;28;20072;-73
2022/08/05 00:02:28;;;;;;;30.55;13.05;;;;;;;19.46;82.85;101179.69;4970789;28;20023;-73
2022/08/05 00:04:54;;;;;;;28.00;11.38;;;;;;;19.63;81.54;101181.00;4971011;28;20034;-73
2022/08/05 00:07:19;;;;;;;25.77;11.35;;;;;;;19.33;82.13;101174.16;4970895;28;20019;-73
2022/08/05 00:09:45;;;;;;;31.63;11.80;;;;;;;19.39;82.13;101179.69;4970610;28;20027;-73
2022/08/05 00:12:10;;;;;;;32.33;12.18;;;;;;;19.41;81.79;101171.22;4972242;28;20045;-73
2022/08/05 00:14:35;;;;;;;31.17;10.82;;;;;;;19.50;81.38;101186.47;4979506;28;20085;-73
2022/08/05 00:17:01;;;;;;;28.35;11.20;;;;;;;19.25;82.37;101200.78;4991348;28;20022;-73
2022/08/05 00:19:26;;;;;;;31.00;11.25;;;;;;;19.17;82.44;101200.97;4990510;28;20042;-73
2022/08/05 00:21:52;;;;;;;33.15;12.35;;;;;;;19.24;82.14;101199.09;4990267;28;20552;-74
2022/08/05 00:24:17;;;;;;;26.58;8.65;;;;;;;19.30;81.02;101191.91;4990284;28;20076;-74
2022/08/05 00:26:42;;;;;;;25.05;9.82;;;;;;;19.15;81.34;101189.31;4989701;28;20034;-73
2022/08/05 00:29:08;;;;;;;18.75;8.20;;;;;;;19.10;80.40;101185.50;4989916;28;20032;-73
2022/08/05 00:31:33;;;;;;;22.95;8.77;;;;;;;19.08;80.11;101191.22;4989779;28;20122;-73
2022/08/05 00:33:58;;;;;;;20.50;7.40;;;;;;;19.03;79.36;101190.97;4989759;28;20022;-73
2022/08/05 00:36:24;;;;;;;21.65;7.22;;;;;;;19.13;78.74;101191.44;4989619;28;20029;-72
2022/08/05 00:38:50;;;;;;;21.17;5.95;;;;;;;19.00;78.31;101191.41;4977477;28;20034;-72
2022/08/05 00:41:35;;;;;;;15.38;6.25;;;;;;;18.86;78.64;101178.69;4970126;28;20534;-72
2022/08/05 00:44:00;;;;;;;16.25;6.30;;;;;;;18.90;78.14;101171.72;4985165;28;20026;-72
2022/08/05 00:46:26;;;;;;;22.23;6.80;;;;;;;18.89;77.97;101183.75;4988607;28;20092;-71
2022/08/05 00:48:52;;;;;;;20.10;5.80;;;;;;;18.85;78.11;101201.69;4977513;28;20014;-71
2022/08/05 00:51:21;;;;;;;13.40;5.60;;;;;;;18.64;78.09;101189.72;4988672;28;20022;-71
2022/08/05 00:53:47;;;;;;;16.10;5.65;;;;;;;18.65;77.62;101199.69;4982864;28;20623;-71
2022/08/05 00:56:14;;;;;;;14.30;4.82;;;;;;;18.67;77.28;101208.56;4988980;28;20089;-71
2022/08/05 00:58:40;;;;;;;16.77;5.57;;;;;;;18.61;77.32;101203.88;4988946;28;20062;-71
2022/08/05 01:01:05;;;;;;;14.70;4.53;;;;;;;18.64;76.78;101208.09;4989377;28;20045;-71
2022/08/05 01:03:31;;;;;;;13.25;4.57;;;;;;;18.65;75.91;101215.28;4990000;28;20026;-71
2022/08/05 01:05:56;;;;;;;12.48;4.00;;;;;;;18.56;76.27;101209.09;4989068;28;20030;-70
2022/08/05 01:08:22;;;;;;;12.50;3.92;;;;;;;18.68;75.71;101206.66;4989074;28;20034;-70
2022/08/05 01:10:56;;;;;;;10.10;4.20;;;;;;;18.77;75.01;101212.81;4988745;28;20033;-70
2022/08/05 01:13:38;;;;;;;10.70;4.13;;;;;;;18.94;74.42;101215.03;4989614;28;20113;-70
2022/08/05 01:16:09;;;;;;;10.50;4.28;;;;;;;18.77;74.37;101212.81;4990041;28;20025;-70
2022/08/05 01:18:41;;;;;;;11.25;3.55;;;;;;;18.86;73.41;101195.16;4988797;28;20504;-70
2022/08/05 01:21:18;;;;;;;7.70;3.80;;;;;;;18.68;73.70;101191.06;4990691;28;20033;-70
2022/08/05 01:24:21;;;;;;;12.02;3.75;;;;;;;18.81;73.23;101209.47;4988710;28;20033;-70
2022/08/05 01:27:06;;;;;;;12.13;3.15;;;;;;;18.80;73.04;101204.19;4977435;28;20129;-70
2022/08/05 01:29:36;;;;;;;15.38;3.58;;;;;;;18.59;74.12;101197.75;4988389;28;20084;-70
2022/08/05 01:32:08;;;;;;;15.75;4.38;;;;;;;18.72;73.82;101194.25;4990079;28;20084;-70
2022/08/05 01:35:08;;;;;;;12.85;3.30;;;;;;;18.75;73.33;101182.00;4989447;28;20096;-71
2022/08/05 01:37:48;;;;;;;8.40;3.05;;;;;;;18.78;73.61;101159.66;4965316;28;20029;-71
2022/08/05 01:40:17;;;;;;;13.38;3.33;;;;;;;18.82;73.85;101152.72;4969152;28;20027;-71
2022/08/05 01:42:44;;;;;;;14.90;3.92;;;;;;;18.94;73.10;101140.94;4970070;28;20023;-71
2022/08/05 01:45:13;;;;;;;7.20;3.17;;;;;;;18.97;73.05;101147.88;4981434;28;20072;-71
2022/08/05 01:47:40;;;;;;;8.63;3.22;;;;;;;18.95;72.69;101144.50;4988552;28;20037;-73
2022/08/05 01:50:15;;;;;;;7.25;3.03;;;;;;;18.97;72.11;101142.41;4989662;28;20022;-70
2022/08/05 01:52:44;;;;;;;11.15;3.00;;;;;;;19.06;72.59;101141.19;4988656;28;20054;-71
2022/08/05 01:55:12;;;;;;;9.80;2.50;;;;;;;19.19;71.67;101119.25;4988424;28;20034;-73
2022/08/05 01:57:40;;;;;;;13.75;3.00;;;;;;;19.22;71.59;101091.34;4989660;28;20015;-73
2022/08/05 02:00:10;;;;;;;8.00;2.78;;;;;;;19.11;72.07;101081.03;4988327;28;20488;-73
2022/08/05 02:02:39;;;;;;;7.38;2.65;;;;;;;19.16;71.86;101086.69;4988491;28;20046;-73
2022/08/05 02:05:07;;;;;;;8.68;2.97;;;;;;;19.29;71.43;101085.03;4988087;28;20050;-73
2022/08/05 02:07:34;;;;;;;9.57;2.78;;;;;;;19.21;71.44;101084.19;4990077;28;20109;-73
2022/08/05 02:10:00;;;;;;;5.35;2.45;;;;;;;19.21;71.11;101089.66;4988451;28;20400;-73
2022/08/05 02:12:37;;;;;;;6.95;2.72;;;;;;;19.06;71.25;101097.25;4988413;28;20037;-73
2022/08/05 02:15:08;;;;;;;6.50;2.50;;;;;;;19.11;70.51;101105.72;4996189;28;20060;-73
2022/08/05 02:17:52;;;;;;;8.40;2.40;;;;;;;19.10;70.77;101082.06;4970111;28;20027;-73
2022/08/05 02:20:26;;;;;;;8.15;2.80;;;;;;;19.01;70.97;101083.31;4968373;28;20058;-73
2022/08/05 02:22:59;;;;;;;9.45;3.10;;;;;;;19.21;70.77;101064.97;4969115;28;20030;-71
2022/08/05 02:25:29;;;;;;;9.65;2.67;;;;;;;19.08;70.90;101051.22;4969104;28;20393;-71
2022/08/05 02:27:56;;;;;;;14.20;2.72;;;;;;;19.24;70.41;101034.38;4973914;28;20430;-71
2022/08/05 02:30:24;;;;;;;9.20;2.50;;;;;;;19.09;70.79;101036.44;4973331;28;20015;-71
2022/08/05 02:32:53;;;;;;;10.23;2.95;;;;;;;18.95;71.16;101051.22;4972865;28;20498;-71
2022/08/05 02:35:20;;;;;;;11.90;3.30;;;;;;;19.05;71.18;101062.66;4972425;28;20062;-71
2022/08/05 02:37:46;;;;;;;7.53;3.13;;;;;;;19.06;71.25;101080.78;4973343;28;20023;-71
2022/08/05 02:40:15;;;;;;;7.93;2.67;;;;;;;19.29;70.67;101094.09;4973543;28;20037;-71
2022/08/05 02:42:42;;;;;;;6.68;2.47;;;;;;;19.36;72.00;101102.34;4972033;28;20023;-71
2022/08/05 02:45:08;;;;;;;12.98;3.38;;;;;;;19.35;73.26;101122.63;4996319;28;20096;-71
2022/08/05 02:47:36;;;;;;;12.02;3.65;;;;;;;18.98;74.23;101171.56;5027720;28;20033;-70
2022/08/05 02:50:03;;;;;;;8.52;2.85;;;;;;;18.89;74.40;101222.16;5027355;28;20049;-71
2022/08/05 02:52:31;;;;;;;15.23;3.30;;;;;;;18.68;76.00;101192.97;5013356;28;20045;-72
2022/08/05 02:54:58;;;;;;;17.95;4.00;;;;;;;18.70;77.82;101158.78;5013882;28;20026;-78
2022/08/05 02:57:24;;;;;;;23.55;6.10;;;;;;;18.58;81.83;101143.94;5014236;28;20064;-71
2022/08/05 02:59:50;;;;;;;19.98;5.47;;;;;;;18.51;83.57;101115.63;5013453;28;20060;-70
2022/08/05 03:02:19;;;;;;;17.45;5.25;;;;;;;18.27;82.17;101080.53;5013621;28;20033;-74
2022/08/05 03:04:48;;;;;;;27.00;5.88;;;;;;;18.42;82.01;101079.31;5013439;28;20028;-73
2022/08/05 03:07:14;;;;;;;12.85;5.35;;;;;;;18.21;83.25;101092.31;5013869;28;20384;-72
2022/08/05 03:09:41;;;;;;;13.18;4.82;;;;;;;18.16;83.99;101118.41;5014625;28;20025;-72
2022/08/05 03:12:07;;;;;;;13.00;5.68;;;;;;;18.28;82.94;101120.59;5013285;28;20096;-71
2022/08/05 03:14:33;;;;;;;14.52;5.53;;;;;;;18.28;82.72;101123.34;4996435;28;20030;-72
2022/08/05 03:16:59;;;;;;;12.23;5.65;;;;;;;18.28;83.31;101110.47;4995066;28;20026;-72
2022/08/05 03:19:25;;;;;;;18.08;5.00;;;;;;;18.31;83.85;101106.47;4993357;28;20025;-72
2022/08/05 03:21:50;;;;;;;20.35;5.28;;;;;;;18.16;83.43;101101.97;4985720;28;20026;-73
2022/08/05 03:24:19;;;;;;;15.00;5.22;;;;;;;18.13;82.85;101096.91;4975312;28;20093;-73
2022/08/05 03:26:45;;;;;;;45.53;8.85;;;;;;;18.02;84.48;101089.25;4975307;28;20023;-73
2022/08/05 03:29:11;;;;;;;22.80;5.00;;;;;;;17.84;83.02;101091.66;4974043;28;20034;-73
2022/08/05 03:31:37;;;;;;;15.10;5.25;;;;;;;17.63;83.45;101109.81;4975291;28;20086;-74
2022/08/05 03:34:03;;;;;;;13.82;4.70;;;;;;;17.67;84.44;101123.09;4973162;28;20073;-73
2022/08/05 03:36:29;;;;;;;16.60;6.18;;;;;;;17.64;84.57;101119.72;4973642;28;20034;-73
2022/08/05 03:38:56;;;;;;;13.15;4.95;;;;;;;17.43;84.78;101130.69;4974095;28;20054;-73
2022/08/05 03:41:21;;;;;;;11.43;5.60;;;;;;;17.49;85.33;101132.66;4975380;28;20504;-73
2022/08/05 03:43:47;;;;;;;18.30;6.03;;;;;;;17.26;86.19;101142.94;4974787;28;20027;-73
2022/08/05 03:46:13;;;;;;;18.42;6.15;;;;;;;17.44;85.75;101140.59;4992839;28;20054;-73
2022/08/05 03:48:38;;;;;;;17.40;5.72;;;;;;;17.46;85.31;101143.97;4992843;28;20027;-73
2022/08/05 03:51:18;;;;;;;15.43;5.00;;;;;;;17.42;84.90;101130.91;4994244;28;20027;-73
2022/08/05 03:53:59;;;;;;;9.57;6.07;;;;;;;17.35;86.28;101114.44;4992757;28;20030;-73
2022/08/05 03:56:30;;;;;;;13.05;5.50;;;;;;;17.48;84.97;101122.75;4993377;28;20076;-73
2022/08/05 03:58:56;;;;;;;;;;;;;;;17.46;85.46;101100.19;4993154;28;20057;-72
2022/08/05 04:01:25;;;;;;;12.55;5.30;;;;;;;17.42;84.66;101098.91;4993021;28;19956;-73
2022/08/05 04:03:51;;;;;;;15.38;5.32;;;;;;;17.16;85.70;101112.34;4992569;28;20065;-73
2022/08/05 04:06:18;;;;;;;17.15;5.78;;;;;;;17.12;86.32;101113.78;4992683;28;20022;-73
2022/08/05 04:08:45;;;;;;;8.85;4.68;;;;;;;17.21;85.12;101126.25;4986569;28;20021;-73
2022/08/05 04:11:10;;;;;;;12.20;5.50;;;;;;;17.32;84.85;101120.28;4984366;28;20030;-73
2022/08/05 04:13:39;;;;;;;17.83;4.80;;;;;;;17.30;84.64;101127.84;4987109;28;20022;-73
2022/08/05 04:16:07;;;;;;;15.70;6.03;;;;;;;17.42;84.48;101126.28;4981586;28;20014;-74
2022/08/05 04:18:33;;;;;;;13.20;5.22;;;;;;;17.59;83.60;101104.91;4988933;28;20442;-74
2022/08/05 04:20:59;;;;;;;21.80;6.18;;;;;;;17.51;83.88;101119.59;4982051;28;20022;-75
2022/08/05 04:23:26;;;;;;;16.08;6.20;;;;;;;17.49;83.79;101120.84;4972637;28;20027;-76
2022/08/05 04:25:52;;;;;;;14.27;5.78;;;;;;;17.54;84.42;101124.69;4972635;28;20390;-76
2022/08/05 04:28:19;;;;;;;12.40;5.10;;;;;;;17.51;84.29;101141.50;4972919;28;20037;-76
2022/08/05 04:30:45;;;;;;;13.02;6.07;;;;;;;17.50;84.36;101128.88;4972268;28;20031;-76
2022/08/05 04:33:11;;;;;;;13.52;6.25;;;;;;;17.61;84.15;101125.59;4973686;28;20166;-76
2022/08/05 04:35:36;;;;;;;23.58;6.28;;;;;;;17.45;84.88;101120.41;4972716;28;20022;-77
2022/08/05 04:38:02;;;;;;;16.05;6.47;;;;;;;17.39;85.03;101134.88;4973805;28;20025;-76
2022/08/05 04:40:27;;;;;;;20.20;6.57;;;;;;;17.43;84.83;101136.19;4972131;28;20125;-76
2022/08/05 04:42:53;;;;;;;20.75;7.32;;;;;;;17.20;85.80;101149.19;4973433;28;20106;-76
2022/08/05 04:45:18;;;;;;;18.05;7.20;;;;;;;17.19;86.47;101150.25;4984421;28;20022;-77
2022/08/05 04:47:43;;;;;;;17.42;6.05;;;;;;;17.29;85.88;101159.00;4988372;28;20126;-77
2022/08/05 04:50:10;;;;;;;17.10;8.43;;;;;;;17.13;85.97;101165.56;4971970;28;20113;-77
2022/08/05 04:52:35;;;;;;;20.95;7.03;;;;;;;17.14;86.66;101174.59;4972112;28;20023;-77
2022/08/05 04:55:00;;;;;;;16.08;7.13;;;;;;;17.27;85.96;101177.47;4973680;28;20106;-77
2022/08/05 04:57:26;;;;;;;18.48;6.57;;;;;;;17.22;85.61;101174.50;4973627;28;20031;-77
2022/08/05 04:59:51;;;;;;;25.70;8.45;;;;;;;17.00;87.13;101177.19;4972259;28;20031;-77
2022/08/05 05:02:16;;;;;;;14.82;8.32;;;;;;;16.89;87.02;101191.41;4972440;28;20027;-77
2022/08/05 05:04:42;;;;;;;18.20;7.28;;;;;;;17.01;86.75;101200.78;4972007;28;20126;-77
2022/08/05 05:07:07;;;;;;;20.33;8.55;;;;;;;16.96;86.95;101208.72;4972170;28;20113;-77
2022/08/05 05:09:33;;;;;;;20.27;7.10;;;;;;;17.09;86.37;101208.88;4973323;28;20035;-77
2022/08/05 05:11:58;;;;;;;17.05;7.88;;;;;;;17.20;86.34;101223.09;4971587;28;20034;-77
2022/08/05 05:14:23;;;;;;;18.52;8.05;;;;;;;17.25;85.24;101228.84;4986351;28;20037;-77
2022/08/05 05:16:49;;;;;;;18.50;8.05;;;;;;;17.21;85.93;101233.84;4991493;28;20026;-77
2022/08/05 05:19:14;;;;;;;20.33;8.05;;;;;;;17.30;85.89;101218.16;4991453;28;20026;-77
2022/08/05 05:21:39;;;;;;;18.73;7.50;;;;;;;17.48;84.29;101207.63;4991379;28;20086;-77
2022/08/05 05:24:05;;;;;;;17.05;7.57;;;;;;;17.43;84.71;101210.09;4992583;28;20030;-77
2022/08/05 05:26:30;;;;;;;12.93;6.43;;;;;;;17.56;84.08;101199.25;4991471;28;20018;-77
2022/08/05 05:28:56;;;;;;;18.38;8.10;;;;;;;17.72;83.23;101202.81;4991484;28;20084;-77
2022/08/05 05:31:21;;;;;;;26.75;7.45;;;;;;;17.50;84.00;101200.06;4991371;28;20026;-78
2022/08/05 05:33:46;;;;;;;13.77;6.07;;;;;;;17.72;83.59;101202.81;4992001;28;20097;-77
2022/08/05 05:36:12;;;;;;;18.77;7.10;;;;;;;17.71;82.03;101195.59;4991554;28;20362;-78
2022/08/05 05:38:40;;;;;;;14.30;7.05;;;;;;;17.76;82.85;101195.91;4991167;28;20093;-78
2022/08/05 05:41:05;;;;;;;16.23;7.00;;;;;;;17.79;82.99;101203.69;4988549;28;20023;-78
2022/08/05 05:43:31;;;;;;;15.57;6.68;;;;;;;17.60;81.89;101200.59;4983935;28;20113;-78
2022/08/05 05:45:56;;;;;;;15.77;6.88;;;;;;;17.82;81.96;101222.50;4986276;28;20022;-78
2022/08/05 05:48:21;;;;;;;18.05;6.68;;;;;;;17.67;81.63;101221.69;4983962;28;20034;-78
2022/08/05 05:50:47;;;;;;;17.20;9.07;;;;;;;17.48;82.21;101218.56;4984519;28;20053;-78
2022/08/05 05:53:12;;;;;;;17.80;7.00;;;;;;;17.60;82.87;101211.53;4981124;28;20545;-76
2022/08/05 05:55:37;;;;;;;11.45;6.07;;;;;;;17.67;82.51;101206.13;4984321;28;20026;-76
2022/08/05 05:58:03;;;;;;;16.13;6.55;;;;;;;17.87;82.24;101200.84;4983796;28;20070;-77
2022/08/05 06:00:28;;;;;;;16.60;6.50;;;;;;;17.43;82.60;101204.63;4979606;28;20109;-77
2022/08/05 06:02:53;;;;;;;17.67;7.70;;;;;;;17.72;82.86;101208.28;4983596;28;20030;-77
2022/08/05 06:05:20;;;;;;;18.90;5.78;;;;;;;17.74;82.64;101211.69;4989628;28;20034;-77
2022/08/05 06:07:46;;;;;;;18.20;6.32;;;;;;;17.93;81.23;101232.06;4983254;28;20056;-77
2022/08/05 06:10:12;;;;;;;13.43;5.70;;;;;;;17.73;82.08;101248.31;4980796;28;20489;-77
2022/08/05 06:12:38;;;;;;;15.13;6.85;;;;;;;17.72;82.25;101252.94;4982195;28;20030;-77
2022/08/05 06:15:05;;;;;;;16.05;7.07;;;;;;;17.94;81.79;101242.84;4985178;28;20105;-77
2022/08/05 06:17:30;;;;;;;8.80;5.90;;;;;;;18.05;80.91;101236.78;4990659;28;20034;-77
2022/08/05 06:19:56;;;;;;;17.20;6.07;;;;;;;17.98;80.94;101219.47;4974497;28;20031;-75
2022/08/05 06:22:26;;;;;;;18.33;5.95;;;;;;;17.77;81.39;101219.50;4978954;28;20068;-75
2022/08/05 06:24:51;;;;;;;14.23;6.78;;;;;;;17.90;81.40;101238.78;4980564;28;20113;-76
2022/08/05 06:27:17;;;;;;;12.80;5.80;;;;;;;18.27;79.94;101228.53;4992174;28;20117;-75
2022/08/05 06:29:42;;;;;;;14.48;5.63;;;;;;;18.29;79.94;101210.00;4989990;28;20045;-76
2022/08/05 06:32:08;;;;;;;11.48;5.57;;;;;;;18.34;80.36;101207.50;4991618;28;20037;-75
2022/08/05 06:34:34;;;;;;;10.98;5.47;;;;;;;18.14;79.42;101219.19;4977535;28;20027;-80
2022/08/05 06:36:59;;;;;;;11.55;5.63;;;;;;;17.90;81.16;101238.78;4979111;28;20022;-76
2022/08/05 06:39:25;;;;;;;9.55;5.18;;;;;;;17.98;80.94;101238.63;4971440;28;20101;-78
2022/08/05 06:41:50;;;;;;;11.23;6.03;;;;;;;18.05;80.27;101236.78;4983121;28;20028;-78
2022/08/05 06:44:16;;;;;;;19.13;5.80;;;;;;;17.91;80.50;101229.53;4977901;28;20065;-76
2022/08/05 06:46:41;;;;;;;15.02;5.85;;;;;;;17.90;80.65;101211.41;4966281;28;20095;-79
2022/08/05 06:49:07;;;;;;;13.65;6.47;;;;;;;17.90;80.71;101216.88;4981007;28;20041;-75
2022/08/05 06:51:32;;;;;;;15.13;6.10;;;;;;;18.12;80.72;101226.72;4984204;28;20030;-75
2022/08/05 06:53:59;;;;;;;9.10;4.97;;;;;;;18.55;79.19;101221.13;4985946;28;20038;-75
2022/08/05 06:56:25;;;;;;;11.82;5.95;;;;;;;18.68;78.87;101214.91;4990460;28;20157;-75
2022/08/05 06:58:51;;;;;;;12.40;5.50;;;;;;;18.58;77.23;101197.94;4986478;28;20049;-75
2022/08/05 07:01:16;;;;;;;15.43;6.15;;;;;;;18.32;78.49;101223.28;4989370;28;20018;-77
2022/08/05 07:03:41;;;;;;;9.30;4.57;;;;;;;18.47;78.75;101240.50;4994845;28;20028;-75
2022/08/05 07:06:07;;;;;;;16.85;4.95;;;;;;;18.55;79.30;101244.97;4991819;28;20140;-76
2022/08/05 07:08:32;;;;;;;13.73;5.78;;;;;;;18.88;77.39;101247.91;4993178;28;20108;-74
2022/08/05 07:10:57;;;;;;;9.82;4.95;;;;;;;18.76;77.95;101241.31;4984200;28;20069;-75
2022/08/05 07:18:51;;;;;;;12.32;4.50;;;;;;;19.22;76.52;101239.59;4996687;28;20019;-71
2022/08/05 07:21:17;;;;;;;17.73;5.15;;;;;;;19.19;76.14;101234.53;4994871;28;20057;-72
2022/08/05 07:23:42;;;;;;;12.82;5.10;;;;;;;19.00;77.17;101228.97;5005346;28;20030;-71
2022/08/05 07:26:07;;;;;;;13.18;5.05;;;;;;;18.85;77.27;101232.72;4995727;28;20033;-72
2022/08/05 07:28:33;;;;;;;13.70;4.55;;;;;;;18.92;77.37;101232.75;4999691;28;20028;-70
2022/08/05 07:30:58;;;;;;;10.52;5.38;;;;;;;18.93;77.57;101229.78;4999101;28;20362;-68
2022/08/05 07:33:24;;;;;;;12.48;4.90;;;;;;;18.98;76.58;101226.44;4991827;28;20105;-69
2022/08/05 07:35:49;;;;;;;13.00;4.93;;;;;;;18.91;77.84;101236.56;4989880;28;20069;-69
2022/08/05 07:38:15;;;;;;;13.95;4.80;;;;;;;18.91;77.57;101236.56;4986125;28;20122;-70
2022/08/05 07:40:41;;;;;;;16.45;5.55;;;;;;;18.83;77.12;101236.69;4994581;28;20034;-70
2022/08/05 07:43:06;;;;;;;8.23;4.47;;;;;;;18.76;78.49;101233.94;4991869;28;20035;-70
2022/08/05 07:45:32;;;;;;;11.50;4.88;;;;;;;18.78;78.46;101237.34;4996726;28;20042;-69
2022/08/05 07:47:57;;;;;;;17.17;5.78;;;;;;;18.87;78.14;101229.78;4991351;28;20107;-70
2022/08/05 07:50:23;;;;;;;14.07;6.28;;;;;;;18.70;78.55;101224.59;4987740;28;20022;-69
2022/08/05 07:52:49;;;;;;;15.85;5.57;;;;;;;18.57;78.74;101224.50;4988846;28;20505;-70
2022/08/05 07:55:14;;;;;;;12.20;5.05;;;;;;;18.33;80.43;101225.84;4993551;28;20064;-69
2022/08/05 07:57:39;;;;;;;14.65;5.70;;;;;;;18.54;79.17;101230.41;4993883;28;20379;-69
2022/08/05 08:00:06;;;;;;;15.80;5.85;;;;;;;18.51;79.14;101229.94;4988563;28;20018;-69
2022/08/05 08:02:31;;;;;;;17.95;5.82;;;;;;;18.57;79.62;101240.97;5004565;28;20014;-72
2022/08/05 08:04:57;;;;;;;13.23;5.82;;;;;;;18.43;80.29;101250.16;4998504;28;20103;-72
2022/08/05 08:07:22;;;;;;;13.65;5.88;;;;;;;18.30;81.37;101250.06;4998980;28;20021;-72
2022/08/05 08:09:49;;;;;;;15.13;6.03;;;;;;;18.51;80.13;101257.38;5003601;28;20041;-69
2022/08/05 08:12:15;;;;;;;22.80;7.32;;;;;;;18.44;81.51;101246.38;4993480;28;20054;-71
2022/08/05 08:14:41;;;;;;;14.55;6.15;;;;;;;18.61;81.73;101242.25;4997600;28;20092;-71
2022/08/05 08:17:09;;;;;;;22.15;6.80;;;;;;;18.79;82.69;101244.50;4983549;28;20026;-71
2022/08/05 08:19:41;;;;;;;12.88;5.35;;;;;;;18.79;80.79;101249.16;4994142;28;20034;-71
2022/08/05 08:22:07;;;;;;;15.70;5.25;;;;;;;18.82;80.95;101248.72;4986374;28;20089;-70
2022/08/05 08:24:34;;;;;;;13.40;6.15;;;;;;;18.63;80.82;101244.78;4990891;28;20022;-70
2022/08/05 08:27:00;;;;;;;11.77;5.72;;;;;;;18.74;81.15;101240.69;4987846;28;20037;-70
2022/08/05 08:29:25;;;;;;;13.45;6.20;;;;;;;18.70;81.54;101240.22;4991567;28;20034;-71
2022/08/05 08:31:51;;;;;;;16.40;6.80;;;;;;;18.79;82.45;101243.66;4990728;28;20011;-71
2022/08/05 08:34:18;;;;;;;13.63;5.70;;;;;;;18.91;79.90;101239.28;4994936;28;20036;-70
2022/08/05 08:36:43;;;;;;;13.05;5.88;;;;;;;18.80;80.59;101239.88;4962662;28;20444;-70
2022/08/05 08:39:08;;;;;;;11.38;5.60;;;;;;;18.70;79.77;101238.31;4992157;28;20495;-73
2022/08/05 08:41:36;;;;;;;10.55;5.20;;;;;;;18.57;80.96;101240.97;4993080;28;20148;-70
2022/08/05 08:44:02;;;;;;;10.25;4.82;;;;;;;18.59;80.46;101249.84;4988445;28;20029;-70
2022/08/05 08:46:31;;;;;;;10.73;5.97;;;;;;;18.65;81.66;101248.19;4991382;28;20053;-70
2022/08/05 08:48:57;;;;;;;14.20;5.85;;;;;;;18.84;81.05;101252.09;4989961;28;20517;-71
2022/08/05 08:51:30;;;;;;;13.50;5.15;;;;;;;18.90;81.22;101252.13;4987454;28;20039;-70
2022/08/05 08:53:56;;;;;;;18.00;5.38;;;;;;;19.06;81.60;101256.44;4987754;28;20037;-71
2022/08/05 08:56:22;;;;;;;16.02;5.60;;;;;;;18.78;80.02;101263.88;4990608;28;20364;-70
2022/08/05 08:58:47;;;;;;;12.27;4.95;;;;;;;18.60;80.67;101273.47;4989984;28;20026;-71
2022/08/05 09:01:13;;;;;;;12.25;5.07;;;;;;;18.60;80.12;101273.47;4994517;28;20387;-71
2022/08/05 09:03:40;;;;;;;14.15;5.63;;;;;;;18.60;79.93;101278.97;4995327;28;20468;-71
2022/08/05 09:06:06;;;;;;;14.70;5.38;;;;;;;18.67;80.15;101285.38;4992325;28;20030;-71
2022/08/05 09:08:31;;;;;;;12.13;5.13;;;;;;;18.68;79.63;101287.06;4988766;28;20026;-70
2022/08/05 09:10:57;;;;;;;13.38;4.35;;;;;;;18.66;77.27;101289.16;4995131;28;20052;-71
2022/08/05 09:13:23;;;;;;;12.88;4.32;;;;;;;18.77;76.54;101295.97;4998617;28;20033;-71
2022/08/05 09:15:49;;;;;;;9.13;3.90;;;;;;;18.60;77.51;101295.44;4984007;28;20026;-70
2022/08/05 09:18:15;;;;;;;8.55;4.10;;;;;;;18.73;78.65;101288.38;4993931;28;20037;-70
2022/08/05 09:20:43;;;;;;;15.25;4.38;;;;;;;18.87;77.88;101290.13;4989952;28;20015;-70
2022/08/05 09:23:14;;;;;;;18.38;3.95;;;;;;;18.88;77.77;101300.06;4991200;28;20021;-70
2022/08/05 09:25:42;;;;;;;14.47;4.77;;;;;;;18.80;78.96;101305.72;4987008;28;20088;-70
2022/08/05 09:28:14;;;;;;;12.07;4.38;;;;;;;18.47;80.05;101317.28;4993857;28;20014;-71
2022/08/05 09:31:05;;;;;;;11.05;4.40;;;;;;;18.63;78.85;101300.50;4984549;28;20100;-70
2022/08/05 09:33:31;;;;;;;8.73;4.03;;;;;;;18.58;79.06;101308.50;4988299;28;20025;-70
2022/08/05 09:36:02;;;;;;;10.63;3.97;;;;;;;18.56;78.90;101299.59;4992718;28;20029;-70
2022/08/05 09:38:28;;;;;;;9.50;3.00;;;;;;;18.39;76.78;101299.09;4990567;28;20018;-69
2022/08/05 09:41:05;;;;;;;8.77;2.67;;;;;;;18.35;75.40;101291.44;4988629;28;20117;-71
2022/08/05 09:43:36;;;;;;;9.57;2.88;;;;;;;18.41;76.17;101285.16;4977625;28;20037;-70
2022/08/05 09:46:05;;;;;;;10.95;3.63;;;;;;;18.52;77.13;101286.47;4991994;28;20014;-70
2022/08/05 09:48:33;;;;;;;10.43;2.92;;;;;;;18.56;76.59;101282.31;4982873;28;20026;-69
2022/08/05 09:51:05;;;;;;;12.32;3.83;;;;;;;18.59;76.96;101293.72;4984286;28;20093;-71
2022/08/05 09:53:46;;;;;;;;;;;;;;;18.84;75.96;101285.03;4981176;28;20025;-70
2022/08/05 09:56:11;;;;;;;6.85;3.55;;;;;;;18.87;77.97;101290.13;4986683;28;19910;-71
2022/08/05 09:58:36;;;;;;;8.75;4.00;;;;;;;19.17;75.83;101283.31;4985112;28;20022;-71
2022/08/05 10:01:05;;;;;;;10.90;3.88;;;;;;;18.92;77.76;101276.66;4986010;28;20045;-69
2022/08/05 10:03:30;;;;;;;12.50;3.28;;;;;;;18.77;75.69;101273.19;4986351;28;20026;-70
2022/08/05 10:06:04;;;;;;;10.25;3.42;;;;;;;18.73;75.39;101277.41;5002680;28;20175;-71
2022/08/05 10:08:30;;;;;;;15.52;3.35;;;;;;;19.02;75.28;101277.09;4983065;28;20097;-70
2022/08/05 10:10:56;;;;;;;15.63;3.60;;;;;;;18.88;75.04;101275.34;4989058;28;20508;-71
2022/08/05 10:13:30;;;;;;;15.45;3.83;;;;;;;18.72;75.47;101293.00;4987055;28;20029;-70
2022/08/05 10:15:59;;;;;;;10.85;3.78;;;;;;;18.50;76.13;101300.41;4989208;28;20018;-71
2022/08/05 10:18:26;;;;;;;12.05;3.63;;;;;;;18.70;76.13;101301.41;4994038;28;20027;-70
2022/08/05 10:21:03;;;;;;;10.73;4.00;;;;;;;18.96;75.37;101308.94;4979624;28;20026;-71
2022/08/05 10:23:35;;;;;;;8.70;3.22;;;;;;;18.64;76.38;101310.41;4993491;28;20073;-71
2022/08/05 10:26:06;;;;;;;10.30;3.38;;;;;;;18.58;75.73;101324.06;4979110;28;20019;-69
2022/08/05 10:28:32;;;;;;;10.93;3.92;;;;;;;18.40;76.75;101321.84;4981420;28;20501;-71
2022/08/05 10:30:59;;;;;;;6.50;3.30;;;;;;;18.13;78.68;101316.16;4980550;28;20062;-70
2022/08/05 10:33:27;;;;;;;9.02;3.83;;;;;;;18.04;79.45;101314.56;4979736;28;20022;-71
2022/08/05 10:35:53;;;;;;;9.90;3.88;;;;;;;18.21;79.25;101317.06;4983777;28;20056;-71
2022/08/05 10:38:21;;;;;;;10.80;3.50;;;;;;;18.30;78.30;101315.84;4980367;28;20022;-71
2022/08/05 10:40:52;;;;;;;13.48;3.90;;;;;;;18.21;78.46;101323.38;4986842;28;20022;-72
2022/08/05 10:43:33;;;;;;;16.50;4.18;;;;;;;18.02;79.65;101319.41;4988317;28;20022;-73
2022/08/05 10:46:05;;;;;;;11.27;4.82;;;;;;;17.86;81.62;101325.13;4983570;28;20058;-73
2022/08/05 10:48:42;;;;;;;12.82;5.03;;;;;;;17.80;82.75;101320.44;4996132;28;20045;-73
2022/08/05 10:51:14;;;;;;;15.32;4.85;;;;;;;17.92;82.08;101327.09;4991227;28;20025;-73
2022/08/05 10:53:55;;;;;;;13.73;5.65;;;;;;;17.70;83.06;101337.16;4989393;28;20038;-72
2022/08/05 10:56:23;;;;;;;17.45;5.55;;;;;;;17.61;84.00;101344.66;4993514;28;20033;-75
2022/08/05 10:58:51;;;;;;;16.55;5.40;;;;;;;17.78;83.08;101330.75;4988619;28;20017;-74
2022/08/05 11:01:26;;;;;;;12.68;5.22;;;;;;;17.67;84.55;101332.09;4987467;28;20104;-74
2022/08/05 11:04:20;;;;;;;11.05;4.47;;;;;;;17.78;82.68;101342.56;4995215;28;20034;-73
2022/08/05 11:07:05;;;;;;;11.32;5.47;;;;;;;17.75;83.34;101361.28;4992488;28;20045;-76
2022/08/05 11:09:37;;;;;;;13.90;5.00;;;;;;;17.76;80.76;101368.44;4988033;28;20046;-72
2022/08/05 11:12:03;;;;;;;;;;;;;;;17.70;82.99;101380.16;4994402;28;20021;-73
2022/08/05 11:14:35;;;;;;;7.70;4.38;;;;;;;17.44;84.28;101378.78;4986959;28;19914;-75
2022/08/05 11:17:26;;;;;;;11.30;4.35;;;;;;;17.60;83.38;101374.97;4999154;28;20084;-73
2022/08/05 11:19:56;;;;;;;14.85;4.45;;;;;;;17.73;83.10;101374.31;4985765;28;20027;-73
2022/08/05 11:22:41;;;;;;;14.77;5.03;;;;;;;17.56;83.10;101382.72;4990317;28;20117;-74
2022/08/05 11:25:29;;;;;;;14.15;5.05;;;;;;;17.48;84.87;101377.38;4988185;28;20508;-74
2022/08/05 11:28:15;;;;;;;10.02;4.88;;;;;;;17.71;84.32;101385.44;4979051;28;20027;-74